sensor_id;sensor_type;location;lat;lon;timestamp;temperature;humidity
7341;DHT22;6870;50.944;6.932;2023-11-19T00:01:17;20.10;44.60
7341;DHT22;6870;50.944;6.932;2023-11-19T00:03:45;20.00;44.60
7341;DHT22;6870;50.944;6.932;2023-11-19T00:06:16;20.20;44.60
7341;DHT22;6870;50.944;6.932;2023-11-19T00:08:44;19.90;44.30
7341;DHT22;6870;50.944;6.932;2023-11-19T00:11:13;20.10;44.60
7341;DHT22;6870;50.944;6.932;2023-11-19T00:13:42;20.10;44.60
7341;DHT22;6870;50.944;6.932;2023-11-19T00:16:10;20.20;44.70
7341;DHT22;6870;50.944;6.932;2023-11-19T00:18:38;20.50;44.90
7341;DHT22;6870;50.944;6.932;2023-11-19T00:21:07;20.20;44.80
7341;DHT22;6870;50.944;6.932;2023-11-19T00:23:36;20.30;44.60
7341;DHT22;6870;50.944;6.932;2023-11-19T00:26:05;20.30;44.70
7341;DHT22;6870;50.944;6.932;2023-11-19T00:28:34;20.40;45.30
7341;DHT22;6870;50.944;6.932;2023-11-19T00:31:05;20.30;44.40
7341;DHT22;6870;50.944;6.932;2023-11-19T00:33:33;20.40;44.30
7341;DHT22;6870;50.944;6.932;2023-11-19T00:36:01;20.50;44.60
7341;DHT22;6870;50.944;6.932;2023-11-19T00:38:30;20.30;44.30
7341;DHT22;6870;50.944;6.932;2023-11-19T00:40:58;20.00;43.90
7341;DHT22;6870;50.944;6.932;2023-11-19T00:43:26;20.60;44.50
7341;DHT22;6870;50.944;6.932;2023-11-19T00:45:56;20.40;44.40
7341;DHT22;6870;50.944;6.932;2023-11-19T00:48:24;20.10;44.10
7341;DHT22;6870;50.944;6.932;2023-11-19T00:50:53;20.60;44.60
7341;DHT22;6870;50.944;6.932;2023-11-19T00:53:21;20.60;44.50
7341;DHT22;6870;50.944;6.932;2023-11-19T00:55:49;20.00;44.20
7341;DHT22;6870;50.944;6.932;2023-11-19T00:58:17;20.50;45.00
7341;DHT22;6870;50.944;6.932;2023-11-19T01:00:45;20.40;44.90
7341;DHT22;6870;50.944;6.932;2023-11-19T01:03:15;20.60;45.10
7341;DHT22;6870;50.944;6.932;2023-11-19T01:05:43;20.30;44.70
7341;DHT22;6870;50.944;6.932;2023-11-19T01:08:13;20.30;44.80
7341;DHT22;6870;50.944;6.932;2023-11-19T01:10:42;20.60;45.00
7341;DHT22;6870;50.944;6.932;2023-11-19T01:13:10;20.50;44.60
7341;DHT22;6870;50.944;6.932;2023-11-19T01:15:38;20.00;44.20
7341;DHT22;6870;50.944;6.932;2023-11-19T01:18:07;20.40;44.70
7341;DHT22;6870;50.944;6.932;2023-11-19T01:20:38;20.20;44.60
7341;DHT22;6870;50.944;6.932;2023-11-19T01:23:06;20.10;44.20
7341;DHT22;6870;50.944;6.932;2023-11-19T01:25:34;20.60;44.80
7341;DHT22;6870;50.944;6.932;2023-11-19T01:28:04;20.40;44.40
7341;DHT22;6870;50.944;6.932;2023-11-19T01:30:32;20.40;44.20
7341;DHT22;6870;50.944;6.932;2023-11-19T01:33:00;20.50;44.50
7341;DHT22;6870;50.944;6.932;2023-11-19T01:35:28;20.10;44.10
7341;DHT22;6870;50.944;6.932;2023-11-19T01:37:57;20.30;44.20
7341;DHT22;6870;50.944;6.932;2023-11-19T01:40:25;20.40;44.10
7341;DHT22;6870;50.944;6.932;2023-11-19T01:42:53;20.60;44.50
7341;DHT22;6870;50.944;6.932;2023-11-19T01:45:27;20.40;44.50
7341;DHT22;6870;50.944;6.932;2023-11-19T01:47:58;20.70;44.30
7341;DHT22;6870;50.944;6.932;2023-11-19T01:50:28;20.20;42.60
7341;DHT22;6870;50.944;6.932;2023-11-19T01:52:57;20.60;42.40
7341;DHT22;6870;50.944;6.932;2023-11-19T01:55:27;20.10;41.60
7341;DHT22;6870;50.944;6.932;2023-11-19T01:57:59;20.10;41.50
7341;DHT22;6870;50.944;6.932;2023-11-19T02:00:29;20.40;41.70
7341;DHT22;6870;50.944;6.932;2023-11-19T02:03:00;20.20;41.50
7341;DHT22;6870;50.944;6.932;2023-11-19T02:05:28;19.80;41.20
7341;DHT22;6870;50.944;6.932;2023-11-19T02:08:00;19.80;40.70
7341;DHT22;6870;50.944;6.932;2023-11-19T02:10:28;20.20;41.40
7341;DHT22;6870;50.944;6.932;2023-11-19T02:12:56;20.00;41.20
7341;DHT22;6870;50.944;6.932;2023-11-19T02:15:32;20.10;41.30
7341;DHT22;6870;50.944;6.932;2023-11-19T02:18:20;19.80;41.30
7341;DHT22;6870;50.944;6.932;2023-11-19T02:20:49;19.80;41.50
7341;DHT22;6870;50.944;6.932;2023-11-19T02:23:19;20.00;41.60
7341;DHT22;6870;50.944;6.932;2023-11-19T02:26:09;19.70;41.40
7341;DHT22;6870;50.944;6.932;2023-11-19T02:28:43;19.90;41.60
7341;DHT22;6870;50.944;6.932;2023-11-19T02:31:11;20.00;41.70
7341;DHT22;6870;50.944;6.932;2023-11-19T02:33:39;19.70;41.40
7341;DHT22;6870;50.944;6.932;2023-11-19T02:36:08;19.70;41.50
7341;DHT22;6870;50.944;6.932;2023-11-19T02:38:37;19.80;41.60
7341;DHT22;6870;50.944;6.932;2023-11-19T02:41:06;19.90;41.30
7341;DHT22;6870;50.944;6.932;2023-11-19T02:43:36;19.80;41.70
7341;DHT22;6870;50.944;6.932;2023-11-19T02:46:07;19.60;41.50
7341;DHT22;6870;50.944;6.932;2023-11-19T02:48:38;19.70;41.50
7341;DHT22;6870;50.944;6.932;2023-11-19T02:51:06;19.60;41.50
7341;DHT22;6870;50.944;6.932;2023-11-19T02:53:36;19.70;41.60
7341;DHT22;6870;50.944;6.932;2023-11-19T02:56:05;19.90;41.60
7341;DHT22;6870;50.944;6.932;2023-11-19T02:58:44;19.60;41.60
7341;DHT22;6870;50.944;6.932;2023-11-19T03:01:14;19.50;41.50
7341;DHT22;6870;50.944;6.932;2023-11-19T03:03:57;19.70;41.70
7341;DHT22;6870;50.944;6.932;2023-11-19T03:06:26;19.70;41.60
7341;DHT22;6870;50.944;6.932;2023-11-19T03:08:55;19.70;41.70
7341;DHT22;6870;50.944;6.932;2023-11-19T03:11:24;19.70;41.60
7341;DHT22;6870;50.944;6.932;2023-11-19T03:13:52;19.60;41.70
7341;DHT22;6870;50.944;6.932;2023-11-19T03:16:21;19.30;41.50
7341;DHT22;6870;50.944;6.932;2023-11-19T03:18:49;19.60;41.30
7341;DHT22;6870;50.944;6.932;2023-11-19T03:21:17;19.70;41.60
7341;DHT22;6870;50.944;6.932;2023-11-19T03:23:45;19.70;41.90
7341;DHT22;6870;50.944;6.932;2023-11-19T03:26:13;19.60;41.80
7341;DHT22;6870;50.944;6.932;2023-11-19T03:28:41;19.30;41.20
7341;DHT22;6870;50.944;6.932;2023-11-19T03:31:09;19.40;41.70
7341;DHT22;6870;50.944;6.932;2023-11-19T03:33:39;19.50;41.80
7341;DHT22;6870;50.944;6.932;2023-11-19T03:36:08;19.60;41.50
7341;DHT22;6870;50.944;6.932;2023-11-19T03:38:36;19.60;41.60
7341;DHT22;6870;50.944;6.932;2023-11-19T03:41:10;19.40;41.70
7341;DHT22;6870;50.944;6.932;2023-11-19T03:43:39;19.60;42.00
7341;DHT22;6870;50.944;6.932;2023-11-19T03:46:16;19.70;42.00
7341;DHT22;6870;50.944;6.932;2023-11-19T03:48:47;19.40;41.70
7341;DHT22;6870;50.944;6.932;2023-11-19T03:51:16;19.40;41.80
7341;DHT22;6870;50.944;6.932;2023-11-19T03:53:45;19.50;41.60
7341;DHT22;6870;50.944;6.932;2023-11-19T03:56:13;19.10;41.40
7341;DHT22;6870;50.944;6.932;2023-11-19T03:58:41;19.70;41.70
7341;DHT22;6870;50.944;6.932;2023-11-19T04:01:11;19.40;41.80
7341;DHT22;6870;50.944;6.932;2023-11-19T04:03:40;19.50;41.80
7341;DHT22;6870;50.944;6.932;2023-11-19T04:06:12;19.70;42.00
7341;DHT22;6870;50.944;6.932;2023-11-19T04:08:41;19.50;42.00
7341;DHT22;6870;50.944;6.932;2023-11-19T04:11:09;19.60;42.00
7341;DHT22;6870;50.944;6.932;2023-11-19T04:13:37;19.40;42.50
7341;DHT22;6870;50.944;6.932;2023-11-19T04:16:05;19.70;41.70
7341;DHT22;6870;50.944;6.932;2023-11-19T04:18:34;19.10;41.50
7341;DHT22;6870;50.944;6.932;2023-11-19T04:21:06;19.60;42.00
7341;DHT22;6870;50.944;6.932;2023-11-19T04:23:35;19.40;41.80
7341;DHT22;6870;50.944;6.932;2023-11-19T04:26:04;19.30;41.60
7341;DHT22;6870;50.944;6.932;2023-11-19T04:28:37;19.70;42.00
7341;DHT22;6870;50.944;6.932;2023-11-19T04:31:05;19.40;41.60
7341;DHT22;6870;50.944;6.932;2023-11-19T04:33:33;19.20;41.50
7341;DHT22;6870;50.944;6.932;2023-11-19T04:36:01;19.30;41.60
7341;DHT22;6870;50.944;6.932;2023-11-19T04:38:30;19.40;41.60
7341;DHT22;6870;50.944;6.932;2023-11-19T04:40:59;19.40;41.10
7341;DHT22;6870;50.944;6.932;2023-11-19T04:43:27;19.40;41.40
7341;DHT22;6870;50.944;6.932;2023-11-19T04:45:55;19.50;41.70
7341;DHT22;6870;50.944;6.932;2023-11-19T04:48:24;19.50;41.90
7341;DHT22;6870;50.944;6.932;2023-11-19T04:50:52;19.30;41.00
7341;DHT22;6870;50.944;6.932;2023-11-19T04:53:22;19.50;41.80
7341;DHT22;6870;50.944;6.932;2023-11-19T04:55:50;19.60;41.90
7341;DHT22;6870;50.944;6.932;2023-11-19T04:58:19;19.60;41.60
7341;DHT22;6870;50.944;6.932;2023-11-19T05:00:47;19.20;41.40
7341;DHT22;6870;50.944;6.932;2023-11-19T05:03:15;19.40;41.60
7341;DHT22;6870;50.944;6.932;2023-11-19T05:05:44;19.60;41.80
7341;DHT22;6870;50.944;6.932;2023-11-19T05:08:12;19.50;41.60
7341;DHT22;6870;50.944;6.932;2023-11-19T05:10:40;19.40;41.60
7341;DHT22;6870;50.944;6.932;2023-11-19T05:13:08;19.80;42.00
7341;DHT22;6870;50.944;6.932;2023-11-19T05:15:38;19.50;41.30
7341;DHT22;6870;50.944;6.932;2023-11-19T05:18:06;19.60;41.80
7341;DHT22;6870;50.944;6.932;2023-11-19T05:20:35;19.20;41.30
7341;DHT22;6870;50.944;6.932;2023-11-19T05:23:03;19.30;41.40
7341;DHT22;6870;50.944;6.932;2023-11-19T05:25:31;19.60;41.60
7341;DHT22;6870;50.944;6.932;2023-11-19T05:27:59;19.70;41.80
7341;DHT22;6870;50.944;6.932;2023-11-19T05:30:27;19.50;41.10
7341;DHT22;6870;50.944;6.932;2023-11-19T05:32:57;19.60;41.50
7341;DHT22;6870;50.944;6.932;2023-11-19T05:35:25;19.30;41.50
7341;DHT22;6870;50.944;6.932;2023-11-19T05:37:53;19.30;41.50
7341;DHT22;6870;50.944;6.932;2023-11-19T05:40:22;19.30;41.30
7341;DHT22;6870;50.944;6.932;2023-11-19T05:42:50;19.50;41.30
7341;DHT22;6870;50.944;6.932;2023-11-19T05:45:18;19.40;41.30
7341;DHT22;6870;50.944;6.932;2023-11-19T05:47:46;19.40;41.50
7341;DHT22;6870;50.944;6.932;2023-11-19T05:50:16;19.30;41.40
7341;DHT22;6870;50.944;6.932;2023-11-19T05:52:44;19.40;41.00
7341;DHT22;6870;50.944;6.932;2023-11-19T05:55:11;19.60;41.10
7341;DHT22;6870;50.944;6.932;2023-11-19T05:57:40;19.60;41.20
7341;DHT22;6870;50.944;6.932;2023-11-19T06:00:12;19.60;41.60
7341;DHT22;6870;50.944;6.932;2023-11-19T06:02:42;19.40;41.80
7341;DHT22;6870;50.944;6.932;2023-11-19T06:05:10;19.30;41.70
7341;DHT22;6870;50.944;6.932;2023-11-19T06:07:40;19.60;42.00
7341;DHT22;6870;50.944;6.932;2023-11-19T06:10:08;19.40;42.00
7341;DHT22;6870;50.944;6.932;2023-11-19T06:12:37;19.30;42.30
7341;DHT22;6870;50.944;6.932;2023-11-19T06:15:08;19.50;42.60
7341;DHT22;6870;50.944;6.932;2023-11-19T06:17:36;19.30;42.90
7341;DHT22;6870;50.944;6.932;2023-11-19T06:20:06;19.30;42.70
7341;DHT22;6870;50.944;6.932;2023-11-19T06:22:35;19.40;43.50
7341;DHT22;6870;50.944;6.932;2023-11-19T06:25:05;19.40;43.10
7341;DHT22;6870;50.944;6.932;2023-11-19T06:27:34;19.40;43.50
7341;DHT22;6870;50.944;6.932;2023-11-19T06:30:03;19.40;43.50
7341;DHT22;6870;50.944;6.932;2023-11-19T06:32:32;19.60;43.90
7341;DHT22;6870;50.944;6.932;2023-11-19T06:35:00;19.40;43.80
7341;DHT22;6870;50.944;6.932;2023-11-19T06:37:28;19.30;43.60
7341;DHT22;6870;50.944;6.932;2023-11-19T06:39:56;19.40;44.00
7341;DHT22;6870;50.944;6.932;2023-11-19T06:42:26;19.30;43.90
7341;DHT22;6870;50.944;6.932;2023-11-19T06:44:54;19.50;44.40
7341;DHT22;6870;50.944;6.932;2023-11-19T06:47:26;19.40;44.10
7341;DHT22;6870;50.944;6.932;2023-11-19T06:49:54;19.10;43.80
7341;DHT22;6870;50.944;6.932;2023-11-19T06:52:22;19.60;44.60
7341;DHT22;6870;50.944;6.932;2023-11-19T06:54:50;19.50;44.20
7341;DHT22;6870;50.944;6.932;2023-11-19T06:57:18;19.60;44.70
7341;DHT22;6870;50.944;6.932;2023-11-19T06:59:48;19.50;44.60
7341;DHT22;6870;50.944;6.932;2023-11-19T07:02:16;19.60;44.30
7341;DHT22;6870;50.944;6.932;2023-11-19T07:04:44;19.30;44.50
7341;DHT22;6870;50.944;6.932;2023-11-19T07:07:12;19.30;44.60
7341;DHT22;6870;50.944;6.932;2023-11-19T07:09:42;19.50;44.60
7341;DHT22;6870;50.944;6.932;2023-11-19T07:12:10;19.40;44.90
7341;DHT22;6870;50.944;6.932;2023-11-19T07:14:39;19.50;44.90
7341;DHT22;6870;50.944;6.932;2023-11-19T07:17:10;19.40;44.90
7341;DHT22;6870;50.944;6.932;2023-11-19T07:19:38;19.60;45.00
7341;DHT22;6870;50.944;6.932;2023-11-19T07:22:06;19.40;45.20
7341;DHT22;6870;50.944;6.932;2023-11-19T07:24:34;19.50;45.20
7341;DHT22;6870;50.944;6.932;2023-11-19T07:27:03;19.60;45.50
7341;DHT22;6870;50.944;6.932;2023-11-19T07:29:31;19.60;45.20
7341;DHT22;6870;50.944;6.932;2023-11-19T07:31:59;19.50;45.40
7341;DHT22;6870;50.944;6.932;2023-11-19T07:34:30;19.50;45.40
7341;DHT22;6870;50.944;6.932;2023-11-19T07:36:58;19.30;45.40
7341;DHT22;6870;50.944;6.932;2023-11-19T07:39:29;19.50;45.50
7341;DHT22;6870;50.944;6.932;2023-11-19T07:41:57;19.60;45.50
7341;DHT22;6870;50.944;6.932;2023-11-19T07:44:25;19.40;44.90
7341;DHT22;6870;50.944;6.932;2023-11-19T07:46:53;19.60;46.00
7341;DHT22;6870;50.944;6.932;2023-11-19T07:49:21;19.70;46.30
7341;DHT22;6870;50.944;6.932;2023-11-19T07:51:51;19.50;46.20
7341;DHT22;6870;50.944;6.932;2023-11-19T07:54:19;19.70;45.80
7341;DHT22;6870;50.944;6.932;2023-11-19T07:56:48;19.60;45.60
7341;DHT22;6870;50.944;6.932;2023-11-19T07:59:17;19.50;44.70
7341;DHT22;6870;50.944;6.932;2023-11-19T08:01:45;19.50;44.20
7341;DHT22;6870;50.944;6.932;2023-11-19T08:04:13;19.50;44.20
7341;DHT22;6870;50.944;6.932;2023-11-19T08:06:42;19.70;44.60
7341;DHT22;6870;50.944;6.932;2023-11-19T08:09:12;19.80;43.90
7341;DHT22;6870;50.944;6.932;2023-11-19T08:11:41;19.60;42.80
7341;DHT22;6870;50.944;6.932;2023-11-19T08:14:09;19.80;41.90
7341;DHT22;6870;50.944;6.932;2023-11-19T08:16:39;19.60;41.00
7341;DHT22;6870;50.944;6.932;2023-11-19T08:19:07;19.50;40.30
7341;DHT22;6870;50.944;6.932;2023-11-19T08:21:35;19.40;40.40
7341;DHT22;6870;50.944;6.932;2023-11-19T08:24:04;19.70;39.90
7341;DHT22;6870;50.944;6.932;2023-11-19T08:26:34;19.70;39.90
7341;DHT22;6870;50.944;6.932;2023-11-19T08:29:02;19.70;39.80
7341;DHT22;6870;50.944;6.932;2023-11-19T08:31:30;19.40;39.30
7341;DHT22;6870;50.944;6.932;2023-11-19T08:33:58;19.50;39.70
7341;DHT22;6870;50.944;6.932;2023-11-19T08:36:26;19.50;39.50
7341;DHT22;6870;50.944;6.932;2023-11-19T08:38:54;19.50;38.10
7341;DHT22;6870;50.944;6.932;2023-11-19T08:41:22;19.50;38.00
7341;DHT22;6870;50.944;6.932;2023-11-19T08:43:52;19.60;38.40
7341;DHT22;6870;50.944;6.932;2023-11-19T08:46:20;19.30;37.90
7341;DHT22;6870;50.944;6.932;2023-11-19T08:48:48;19.70;37.60
7341;DHT22;6870;50.944;6.932;2023-11-19T08:51:16;19.60;36.60
7341;DHT22;6870;50.944;6.932;2023-11-19T08:53:44;19.30;36.60
7341;DHT22;6870;50.944;6.932;2023-11-19T08:56:12;19.60;36.50
7341;DHT22;6870;50.944;6.932;2023-11-19T08:58:41;19.60;36.30
7341;DHT22;6870;50.944;6.932;2023-11-19T09:01:10;19.20;35.90
7341;DHT22;6870;50.944;6.932;2023-11-19T09:03:38;19.30;35.80
7341;DHT22;6870;50.944;6.932;2023-11-19T09:06:07;19.40;35.70
7341;DHT22;6870;50.944;6.932;2023-11-19T09:08:35;19.10;35.50
7341;DHT22;6870;50.944;6.932;2023-11-19T09:11:07;19.60;35.00
7341;DHT22;6870;50.944;6.932;2023-11-19T09:13:36;19.20;35.10
7341;DHT22;6870;50.944;6.932;2023-11-19T09:16:04;19.30;35.20
7341;DHT22;6870;50.944;6.932;2023-11-19T09:18:34;19.50;35.30
7341;DHT22;6870;50.944;6.932;2023-11-19T09:21:03;19.60;35.20
7341;DHT22;6870;50.944;6.932;2023-11-19T09:23:31;19.60;35.00
7341;DHT22;6870;50.944;6.932;2023-11-19T09:26:03;19.50;35.00
7341;DHT22;6870;50.944;6.932;2023-11-19T09:28:32;19.50;35.10
7341;DHT22;6870;50.944;6.932;2023-11-19T09:31:00;19.40;34.90
7341;DHT22;6870;50.944;6.932;2023-11-19T09:33:31;19.60;35.20
7341;DHT22;6870;50.944;6.932;2023-11-19T09:36:03;19.70;35.00
7341;DHT22;6870;50.944;6.932;2023-11-19T09:38:31;19.50;35.00
7341;DHT22;6870;50.944;6.932;2023-11-19T09:40:59;19.30;34.80
7341;DHT22;6870;50.944;6.932;2023-11-19T09:43:28;19.30;34.30
7341;DHT22;6870;50.944;6.932;2023-11-19T09:45:58;19.30;33.90
7341;DHT22;6870;50.944;6.932;2023-11-19T09:48:33;19.50;34.90
7341;DHT22;6870;50.944;6.932;2023-11-19T09:51:03;19.50;35.00
7341;DHT22;6870;50.944;6.932;2023-11-19T09:53:32;19.60;35.00
7341;DHT22;6870;50.944;6.932;2023-11-19T09:56:02;19.60;34.90
7341;DHT22;6870;50.944;6.932;2023-11-19T09:58:31;19.50;35.10
7341;DHT22;6870;50.944;6.932;2023-11-19T10:00:59;19.30;35.00
7341;DHT22;6870;50.944;6.932;2023-11-19T10:03:50;19.50;34.40
7341;DHT22;6870;50.944;6.932;2023-11-19T10:06:23;19.40;34.80
7341;DHT22;6870;50.944;6.932;2023-11-19T10:08:53;19.20;35.20
7341;DHT22;6870;50.944;6.932;2023-11-19T10:11:23;19.50;36.00
7341;DHT22;6870;50.944;6.932;2023-11-19T10:13:52;19.60;35.00
7341;DHT22;6870;50.944;6.932;2023-11-19T10:16:28;19.50;35.30
7341;DHT22;6870;50.944;6.932;2023-11-19T10:18:57;19.50;35.00
7341;DHT22;6870;50.944;6.932;2023-11-19T10:21:27;19.60;35.80
7341;DHT22;6870;50.944;6.932;2023-11-19T10:23:56;19.60;35.20
7341;DHT22;6870;50.944;6.932;2023-11-19T10:26:27;19.80;35.80
7341;DHT22;6870;50.944;6.932;2023-11-19T10:28:55;19.40;35.40
7341;DHT22;6870;50.944;6.932;2023-11-19T10:31:24;19.60;35.70
7341;DHT22;6870;50.944;6.932;2023-11-19T10:33:53;19.70;35.80
7341;DHT22;6870;50.944;6.932;2023-11-19T10:36:21;19.60;35.60
7341;DHT22;6870;50.944;6.932;2023-11-19T10:38:56;19.50;35.60
7341;DHT22;6870;50.944;6.932;2023-11-19T10:41:28;19.30;35.20
7341;DHT22;6870;50.944;6.932;2023-11-19T10:43:57;19.40;36.10
7341;DHT22;6870;50.944;6.932;2023-11-19T10:46:36;19.60;36.00
7341;DHT22;6870;50.944;6.932;2023-11-19T10:49:06;19.30;35.50
7341;DHT22;6870;50.944;6.932;2023-11-19T10:51:35;19.50;36.00
7341;DHT22;6870;50.944;6.932;2023-11-19T10:54:05;19.60;36.30
7341;DHT22;6870;50.944;6.932;2023-11-19T10:56:34;19.80;36.60
7341;DHT22;6870;50.944;6.932;2023-11-19T10:59:02;19.60;36.60
7341;DHT22;6870;50.944;6.932;2023-11-19T11:01:52;19.70;37.10
7341;DHT22;6870;50.944;6.932;2023-11-19T11:04:24;19.80;37.40
7341;DHT22;6870;50.944;6.932;2023-11-19T11:06:54;19.80;37.30
7341;DHT22;6870;50.944;6.932;2023-11-19T11:09:27;19.80;37.20
7341;DHT22;6870;50.944;6.932;2023-11-19T11:11:55;20.00;37.90
7341;DHT22;6870;50.944;6.932;2023-11-19T11:14:25;20.30;37.40
7341;DHT22;6870;50.944;6.932;2023-11-19T11:16:56;19.90;37.20
7341;DHT22;6870;50.944;6.932;2023-11-19T11:19:26;20.10;37.40
7341;DHT22;6870;50.944;6.932;2023-11-19T11:21:55;20.10;37.30
7341;DHT22;6870;50.944;6.932;2023-11-19T11:24:34;20.10;37.40
7341;DHT22;6870;50.944;6.932;2023-11-19T11:30:30;20.20;37.90
7341;DHT22;6870;50.944;6.932;2023-11-19T11:33:19;19.90;38.10
7341;DHT22;6870;50.944;6.932;2023-11-19T11:36:02;20.00;38.20
7341;DHT22;6870;50.944;6.932;2023-11-19T11:38:36;19.80;38.10
7341;DHT22;6870;50.944;6.932;2023-11-19T11:41:23;19.90;38.10
7341;DHT22;6870;50.944;6.932;2023-11-19T11:43:56;19.90;38.50
7341;DHT22;6870;50.944;6.932;2023-11-19T11:46:54;19.90;38.60
7341;DHT22;6870;50.944;6.932;2023-11-19T11:49:25;20.00;38.80
7341;DHT22;6870;50.944;6.932;2023-11-19T11:52:01;20.20;38.90
7341;DHT22;6870;50.944;6.932;2023-11-19T11:54:31;20.20;38.80
7341;DHT22;6870;50.944;6.932;2023-11-19T11:57:18;20.00;38.70
7341;DHT22;6870;50.944;6.932;2023-11-19T11:59:48;20.40;39.10
7341;DHT22;6870;50.944;6.932;2023-11-19T12:02:21;20.30;39.00
7341;DHT22;6870;50.944;6.932;2023-11-19T12:04:56;20.40;38.50
7341;DHT22;6870;50.944;6.932;2023-11-19T12:07:24;19.90;37.90
7341;DHT22;6870;50.944;6.932;2023-11-19T12:10:05;20.00;38.00
7341;DHT22;6870;50.944;6.932;2023-11-19T12:12:36;20.20;38.50
7341;DHT22;6870;50.944;6.932;2023-11-19T12:15:08;20.20;38.30
7341;DHT22;6870;50.944;6.932;2023-11-19T12:17:42;19.90;37.50
7341;DHT22;6870;50.944;6.932;2023-11-19T12:20:16;20.00;38.20
7341;DHT22;6870;50.944;6.932;2023-11-19T12:23:04;20.30;38.30
7341;DHT22;6870;50.944;6.932;2023-11-19T12:25:34;20.60;38.60
7341;DHT22;6870;50.944;6.932;2023-11-19T12:28:04;20.60;38.60
7341;DHT22;6870;50.944;6.932;2023-11-19T12:30:32;20.10;38.10
7341;DHT22;6870;50.944;6.932;2023-11-19T12:33:07;20.10;37.50
7341;DHT22;6870;50.944;6.932;2023-11-19T12:35:39;20.30;38.40
7341;DHT22;6870;50.944;6.932;2023-11-19T12:38:07;20.30;37.90
7341;DHT22;6870;50.944;6.932;2023-11-19T12:40:35;20.40;37.70
7341;DHT22;6870;50.944;6.932;2023-11-19T12:43:04;20.30;38.30
7341;DHT22;6870;50.944;6.932;2023-11-19T12:45:35;20.20;38.20
7341;DHT22;6870;50.944;6.932;2023-11-19T12:48:05;20.10;38.10
7341;DHT22;6870;50.944;6.932;2023-11-19T12:50:51;20.00;38.10
7341;DHT22;6870;50.944;6.932;2023-11-19T12:53:21;20.50;38.60
7341;DHT22;6870;50.944;6.932;2023-11-19T12:55:50;19.90;38.00
7341;DHT22;6870;50.944;6.932;2023-11-19T12:58:33;20.30;38.60
7341;DHT22;6870;50.944;6.932;2023-11-19T13:01:04;20.20;38.40
7341;DHT22;6870;50.944;6.932;2023-11-19T13:03:34;20.50;38.70
7341;DHT22;6870;50.944;6.932;2023-11-19T13:06:07;20.30;38.70
7341;DHT22;6870;50.944;6.932;2023-11-19T13:08:38;19.90;38.40
7341;DHT22;6870;50.944;6.932;2023-11-19T13:11:07;20.20;38.60
7341;DHT22;6870;50.944;6.932;2023-11-19T13:13:57;20.20;38.50
7341;DHT22;6870;50.944;6.932;2023-11-19T13:16:27;20.30;38.60
7341;DHT22;6870;50.944;6.932;2023-11-19T13:18:56;20.50;38.20
7341;DHT22;6870;50.944;6.932;2023-11-19T13:21:25;20.20;38.50
7341;DHT22;6870;50.944;6.932;2023-11-19T13:23:53;19.90;38.30
7341;DHT22;6870;50.944;6.932;2023-11-19T13:26:22;20.10;38.40
7341;DHT22;6870;50.944;6.932;2023-11-19T13:28:50;20.40;38.60
7341;DHT22;6870;50.944;6.932;2023-11-19T13:31:19;20.00;38.30
7341;DHT22;6870;50.944;6.932;2023-11-19T13:33:48;19.90;38.20
7341;DHT22;6870;50.944;6.932;2023-11-19T13:36:16;20.00;38.30
7341;DHT22;6870;50.944;6.932;2023-11-19T13:38:45;20.20;38.40
7341;DHT22;6870;50.944;6.932;2023-11-19T13:41:13;20.20;38.40
7341;DHT22;6870;50.944;6.932;2023-11-19T13:43:42;20.30;38.60
7341;DHT22;6870;50.944;6.932;2023-11-19T13:46:10;19.90;38.20
7341;DHT22;6870;50.944;6.932;2023-11-19T13:48:40;20.30;38.60
7341;DHT22;6870;50.944;6.932;2023-11-19T13:51:08;20.30;38.40
7341;DHT22;6870;50.944;6.932;2023-11-19T13:53:37;20.60;38.50
7341;DHT22;6870;50.944;6.932;2023-11-19T13:56:08;20.50;38.30
7341;DHT22;6870;50.944;6.932;2023-11-19T13:58:36;20.40;38.00
7341;DHT22;6870;50.944;6.932;2023-11-19T14:01:05;20.10;37.10
7341;DHT22;6870;50.944;6.932;2023-11-19T14:03:33;20.50;38.00
7341;DHT22;6870;50.944;6.932;2023-11-19T14:06:03;20.50;38.00
7341;DHT22;6870;50.944;6.932;2023-11-19T14:08:33;20.60;38.40
7341;DHT22;6870;50.944;6.932;2023-11-19T14:11:01;20.40;38.20
7341;DHT22;6870;50.944;6.932;2023-11-19T14:13:29;20.20;38.10
7341;DHT22;6870;50.944;6.932;2023-11-19T14:15:57;20.40;38.40
7341;DHT22;6870;50.944;6.932;2023-11-19T14:18:26;20.50;38.40
7341;DHT22;6870;50.944;6.932;2023-11-19T14:20:54;19.90;37.70
7341;DHT22;6870;50.944;6.932;2023-11-19T14:23:23;20.60;38.80
7341;DHT22;6870;50.944;6.932;2023-11-19T14:25:52;20.30;38.60
7341;DHT22;6870;50.944;6.932;2023-11-19T14:28:20;20.00;38.30
7341;DHT22;6870;50.944;6.932;2023-11-19T14:30:49;20.40;38.70
7341;DHT22;6870;50.944;6.932;2023-11-19T14:33:23;19.90;38.20
7341;DHT22;6870;50.944;6.932;2023-11-19T14:35:51;20.20;38.20
7341;DHT22;6870;50.944;6.932;2023-11-19T14:38:19;20.60;38.20
7341;DHT22;6870;50.944;6.932;2023-11-19T14:40:49;20.40;37.00
7341;DHT22;6870;50.944;6.932;2023-11-19T14:43:16;20.70;37.30
7341;DHT22;6870;50.944;6.932;2023-11-19T14:45:45;20.70;37.20
7341;DHT22;6870;50.944;6.932;2023-11-19T14:48:16;20.60;36.50
7341;DHT22;6870;50.944;6.932;2023-11-19T14:50:45;20.90;36.60
7341;DHT22;6870;50.944;6.932;2023-11-19T14:53:13;20.80;36.00
7341;DHT22;6870;50.944;6.932;2023-11-19T14:55:42;20.60;37.60
7341;DHT22;6870;50.944;6.932;2023-11-19T14:58:11;20.70;37.90
7341;DHT22;6870;50.944;6.932;2023-11-19T15:00:43;20.70;37.30
7341;DHT22;6870;50.944;6.932;2023-11-19T15:03:13;20.40;37.60
7341;DHT22;6870;50.944;6.932;2023-11-19T15:05:43;20.60;37.90
7341;DHT22;6870;50.944;6.932;2023-11-19T15:08:12;20.70;37.80
7341;DHT22;6870;50.944;6.932;2023-11-19T15:10:42;20.40;37.90
7341;DHT22;6870;50.944;6.932;2023-11-19T15:13:13;20.50;37.20
7341;DHT22;6870;50.944;6.932;2023-11-19T15:15:41;20.40;37.20
7341;DHT22;6870;50.944;6.932;2023-11-19T15:18:09;20.30;36.00
7341;DHT22;6870;50.944;6.932;2023-11-19T15:20:37;20.90;36.40
7341;DHT22;6870;50.944;6.932;2023-11-19T15:23:05;20.80;36.10
7341;DHT22;6870;50.944;6.932;2023-11-19T15:25:35;20.80;36.40
7341;DHT22;6870;50.944;6.932;2023-11-19T15:28:04;20.80;36.20
7341;DHT22;6870;50.944;6.932;2023-11-19T15:30:33;20.80;36.30
7341;DHT22;6870;50.944;6.932;2023-11-19T15:33:01;20.70;36.20
7341;DHT22;6870;50.944;6.932;2023-11-19T15:35:30;20.80;36.30
7341;DHT22;6870;50.944;6.932;2023-11-19T15:37:58;20.90;35.70
7341;DHT22;6870;50.944;6.932;2023-11-19T15:40:26;20.80;36.40
7341;DHT22;6870;50.944;6.932;2023-11-19T15:42:54;21.00;36.40
7341;DHT22;6870;50.944;6.932;2023-11-19T15:45:24;20.80;36.20
7341;DHT22;6870;50.944;6.932;2023-11-19T15:47:53;20.70;36.30
7341;DHT22;6870;50.944;6.932;2023-11-19T15:50:21;20.50;36.30
7341;DHT22;6870;50.944;6.932;2023-11-19T15:52:49;20.70;36.60
7341;DHT22;6870;50.944;6.932;2023-11-19T15:55:17;20.70;36.60
7341;DHT22;6870;50.944;6.932;2023-11-19T15:57:45;20.50;36.20
7341;DHT22;6870;50.944;6.932;2023-11-19T16:00:14;20.70;37.10
7341;DHT22;6870;50.944;6.932;2023-11-19T16:02:43;20.50;36.40
7341;DHT22;6870;50.944;6.932;2023-11-19T16:05:13;20.40;37.00
7341;DHT22;6870;50.944;6.932;2023-11-19T16:07:41;20.80;37.50
7341;DHT22;6870;50.944;6.932;2023-11-19T16:10:09;20.70;38.00
7341;DHT22;6870;50.944;6.932;2023-11-19T16:12:39;20.50;37.70
7341;DHT22;6870;50.944;6.932;2023-11-19T16:15:08;20.70;38.30
7341;DHT22;6870;50.944;6.932;2023-11-19T16:17:36;20.70;38.50
7341;DHT22;6870;50.944;6.932;2023-11-19T16:20:07;20.30;38.20
7341;DHT22;6870;50.944;6.932;2023-11-19T16:22:38;20.50;38.30